createdAt,value
2019-05-20T00:02:22.706Z,96.60
2019-05-20T00:04:36.931Z,96.70
2019-05-20T00:07:05.387Z,96.70
2019-05-20T00:09:33.842Z,96.60
2019-05-20T00:12:02.294Z,96.50
2019-05-20T00:14:30.758Z,96.60
2019-05-20T00:16:59.382Z,96.80
2019-05-20T00:19:27.826Z,96.70
2019-05-20T00:21:56.296Z,96.80
2019-05-20T00:24:24.757Z,96.70
2019-05-20T00:26:53.212Z,96.80
2019-05-20T00:29:21.680Z,96.80
2019-05-20T00:31:50.227Z,96.90
2019-05-20T00:34:32.693Z,96.70
2019-05-20T00:36:48.879Z,96.80
2019-05-20T00:39:18.986Z,96.70
2019-05-20T00:41:47.521Z,96.80
2019-05-20T00:44:16.503Z,96.90
2019-05-20T00:46:45.023Z,96.90
2019-05-20T00:49:13.491Z,96.90
2019-05-20T00:51:42.876Z,96.80
2019-05-20T00:54:11.348Z,96.80
2019-05-20T00:56:39.807Z,96.80
2019-05-20T00:59:08.348Z,96.90
2019-05-20T01:01:36.833Z,97.00
2019-05-20T01:04:05.413Z,97.00
2019-05-20T01:06:33.892Z,97.00
2019-05-20T01:09:02.612Z,97.00
2019-05-20T01:11:31.062Z,96.90
2019-05-20T01:13:59.574Z,97.00
2019-05-20T01:16:28.166Z,96.90
2019-05-20T01:18:56.678Z,97.00
2019-05-20T01:21:25.160Z,96.90
2019-05-20T01:23:53.619Z,97.30
2019-05-20T01:26:22.084Z,97.00
2019-05-20T01:28:50.742Z,97.00
2019-05-20T01:31:19.295Z,97.00
2019-05-20T01:33:47.802Z,97.10
2019-05-20T01:36:16.286Z,96.90
2019-05-20T01:38:44.867Z,97.00
2019-05-20T01:41:13.429Z,97.00
2019-05-20T01:43:41.933Z,97.10
2019-05-20T01:46:10.510Z,97.00
2019-05-20T01:48:39.031Z,97.00
2019-05-20T01:51:07.483Z,97.00
2019-05-20T01:53:35.939Z,97.10
2019-05-20T01:56:04.402Z,96.90
2019-05-20T01:58:32.889Z,97.00
2019-05-20T02:01:01.564Z,97.20
2019-05-20T02:03:32.191Z,96.90
2019-05-20T02:06:00.354Z,96.80
2019-05-20T02:08:28.934Z,96.80
2019-05-20T02:10:57.470Z,96.90
2019-05-20T02:13:27.645Z,96.90
2019-05-20T02:16:03.768Z,96.90
2019-05-20T02:18:32.442Z,96.90
2019-05-20T02:21:00.945Z,96.80
2019-05-20T02:23:29.523Z,96.90
2019-05-20T02:25:58.026Z,96.80
2019-05-20T02:28:26.478Z,96.70
2019-05-20T02:30:56.995Z,96.70
2019-05-20T02:33:25.228Z,96.80
2019-05-20T02:35:53.723Z,96.90
2019-05-20T02:38:22.226Z,96.90
2019-05-20T02:40:50.674Z,96.90
2019-05-20T02:43:19.146Z,97.00
2019-05-20T02:45:47.667Z,97.10
2019-05-20T02:48:16.274Z,96.90
2019-05-20T02:50:44.794Z,97.10
2019-05-20T02:53:13.279Z,97.20
2019-05-20T02:55:41.785Z,97.20
2019-05-20T02:58:10.253Z,97.20
2019-05-20T03:00:38.777Z,97.20
2019-05-20T03:03:07.320Z,97.20
2019-05-20T03:05:35.836Z,97.10
2019-05-20T03:08:04.300Z,97.20
2019-05-20T03:10:32.803Z,97.00
2019-05-20T03:13:01.361Z,97.20
2019-05-20T03:15:29.813Z,97.20
2019-05-20T03:17:58.787Z,97.20
2019-05-20T03:20:27.258Z,97.20
2019-05-20T03:22:55.726Z,97.30
2019-05-20T03:25:24.188Z,97.30
2019-05-20T03:27:52.755Z,97.30
2019-05-20T03:30:21.335Z,97.30
2019-05-20T03:32:49.808Z,97.20
2019-05-20T03:35:18.273Z,97.40
2019-05-20T03:37:46.781Z,97.30
2019-05-20T03:40:15.310Z,97.20
2019-05-20T03:42:44.045Z,97.40
2019-05-20T03:45:12.829Z,97.30
2019-05-20T03:47:41.335Z,97.50
2019-05-20T03:50:10.089Z,97.30
2019-05-20T03:52:38.535Z,97.30
2019-05-20T03:55:10.149Z,97.20
2019-05-20T03:57:38.679Z,97.30
2019-05-20T04:00:08.501Z,97.60
2019-05-20T04:02:36.972Z,97.30
2019-05-20T04:05:05.777Z,97.20
2019-05-20T04:07:34.254Z,97.20
2019-05-20T04:10:02.787Z,97.30
2019-05-20T04:12:31.248Z,97.20
2019-05-20T04:14:59.711Z,97.20
2019-05-20T04:17:28.244Z,97.10
2019-05-20T04:19:56.723Z,97.10
2019-05-20T04:22:25.164Z,97.20
2019-05-20T04:24:53.657Z,97.40
2019-05-20T04:27:22.115Z,97.40
2019-05-20T04:29:50.639Z,96.70
2019-05-20T04:32:19.120Z,96.80
2019-05-20T04:34:47.706Z,96.90
2019-05-20T04:37:16.492Z,96.90
2019-05-20T04:39:44.936Z,96.90
2019-05-20T04:42:13.531Z,96.90
2019-05-20T04:44:42.082Z,97.10
2019-05-20T04:47:10.705Z,97.20
2019-05-20T04:49:39.178Z,97.10
2019-05-20T04:52:07.774Z,97.10
2019-05-20T04:54:36.225Z,97.10
2019-05-20T04:57:04.761Z,97.20
2019-05-20T04:59:33.242Z,97.20
2019-05-20T05:02:01.701Z,97.30
2019-05-20T05:04:30.219Z,97.30
2019-05-20T05:06:58.731Z,97.00
2019-05-20T05:09:27.246Z,97.00
2019-05-20T05:11:55.738Z,97.10
2019-05-20T05:14:24.176Z,97.10
2019-05-20T05:16:52.648Z,97.00
2019-05-20T05:19:21.111Z,97.00
2019-05-20T05:21:49.674Z,96.90
2019-05-20T05:24:18.274Z,96.70
2019-05-20T05:26:47.915Z,96.70
2019-05-20T05:29:16.577Z,96.80
2019-05-20T05:31:45.116Z,96.90
2019-05-20T05:34:13.702Z,96.80
2019-05-20T05:36:42.172Z,96.60
2019-05-20T05:39:10.691Z,96.70
2019-05-20T05:41:39.395Z,96.90
2019-05-20T05:44:07.922Z,96.50
2019-05-20T05:46:36.454Z,96.30
2019-05-20T05:49:05.020Z,96.30
2019-05-20T05:51:33.491Z,96.20
2019-05-20T05:54:01.961Z,96.20
2019-05-20T05:56:30.502Z,95.90
2019-05-20T05:58:58.958Z,95.90
2019-05-20T06:01:27.503Z,96.00
2019-05-20T06:03:55.979Z,95.60
2019-05-20T06:06:24.500Z,95.30
2019-05-20T06:08:53.045Z,95.50
2019-05-20T06:11:21.579Z,95.60
2019-05-20T06:13:50.103Z,95.70
2019-05-20T06:16:35.314Z,95.30
2019-05-20T06:18:49.663Z,95.60
2019-05-20T06:21:18.116Z,95.40
2019-05-20T06:23:46.603Z,95.40
2019-05-20T06:26:15.099Z,95.10
2019-05-20T06:28:43.587Z,95.20
2019-05-20T06:31:12.176Z,95.00
2019-05-20T06:33:48.358Z,95.40
2019-05-20T06:36:26.409Z,94.70
2019-05-20T06:38:49.873Z,94.90
2019-05-20T06:41:18.433Z,94.40
2019-05-20T06:43:47.080Z,95.30
2019-05-20T06:46:15.535Z,95.10
2019-05-20T06:48:44.008Z,95.40
2019-05-20T06:51:12.462Z,95.60
2019-05-20T06:53:41.087Z,95.80
2019-05-20T06:56:17.514Z,96.00
2019-05-20T06:58:46.077Z,96.10
2019-05-20T07:01:16.822Z,95.90
2019-05-20T07:03:45.364Z,95.20
2019-05-20T07:06:13.901Z,95.00
2019-05-20T07:08:42.356Z,94.50
2019-05-20T07:11:10.883Z,94.40
2019-05-20T07:13:39.415Z,94.40
2019-05-20T07:16:07.955Z,94.20
2019-05-20T07:18:36.999Z,93.90
2019-05-20T07:21:05.503Z,94.30
2019-05-20T07:23:33.960Z,94.30
2019-05-20T07:26:02.439Z,94.40
2019-05-20T07:28:31.025Z,94.50
2019-05-20T07:30:59.511Z,94.50
2019-05-20T07:33:28.097Z,94.40
2019-05-20T07:35:56.640Z,94.00
2019-05-20T07:38:25.221Z,93.60
2019-05-20T07:40:53.895Z,93.70
2019-05-20T07:43:22.494Z,93.70
2019-05-20T07:45:51.523Z,93.50
2019-05-20T07:48:20.632Z,93.40
2019-05-20T07:50:50.621Z,93.60
2019-05-20T07:53:19.916Z,93.80
2019-05-20T07:55:59.760Z,93.90
2019-05-20T07:58:33.486Z,94.20
2019-05-20T08:01:00.597Z,94.00
2019-05-20T08:03:29.087Z,94.00
2019-05-20T08:05:57.733Z,93.50
2019-05-20T08:08:26.418Z,93.80
2019-05-20T08:10:55.303Z,93.30
2019-05-20T08:13:23.836Z,93.40
2019-05-20T08:15:52.374Z,93.40
2019-05-20T08:18:20.833Z,93.40
2019-05-20T08:20:52.127Z,93.40
2019-05-20T08:23:20.675Z,93.20
2019-05-20T08:25:49.236Z,93.00
2019-05-20T08:28:17.693Z,93.10
2019-05-20T08:30:46.182Z,93.10
2019-05-20T08:33:14.690Z,92.90
2019-05-20T08:35:43.276Z,92.70
2019-05-20T08:38:11.815Z,92.70
2019-05-20T08:40:41.950Z,92.30
2019-05-20T08:43:10.754Z,92.40
2019-05-20T08:45:39.203Z,92.80
2019-05-20T08:48:07.668Z,93.10
2019-05-20T08:50:39.857Z,92.80
2019-05-20T08:53:08.624Z,92.70
2019-05-20T08:55:37.121Z,92.50
2019-05-20T08:58:05.664Z,93.20
2019-05-20T09:00:34.170Z,92.80
2019-05-20T09:03:02.702Z,93.20
2019-05-20T09:05:31.221Z,93.20
2019-05-20T09:08:03.354Z,93.30
2019-05-20T09:10:29.944Z,93.10
2019-05-20T09:12:58.428Z,93.00
2019-05-20T09:15:26.985Z,92.80
2019-05-20T09:17:55.558Z,92.40
2019-05-20T09:20:24.176Z,92.50
2019-05-20T09:22:52.996Z,92.30
2019-05-20T09:25:30.023Z,91.70
2019-05-20T09:27:59.044Z,92.10
2019-05-20T09:30:27.688Z,92.10
2019-05-20T09:32:56.719Z,92.20
2019-05-20T09:35:25.228Z,91.80
2019-05-20T09:37:53.683Z,91.60
2019-05-20T09:40:45.928Z,91.50
2019-05-20T09:43:14.463Z,91.10
2019-05-20T09:45:42.972Z,90.80
2019-05-20T09:48:11.649Z,91.30
2019-05-20T09:50:40.168Z,91.50
2019-05-20T09:53:10.420Z,91.20
2019-05-20T09:55:39.071Z,91.00
2019-05-20T09:58:08.106Z,91.70
2019-05-20T10:00:36.696Z,91.20
2019-05-20T10:03:06.232Z,90.90
2019-05-20T10:05:37.339Z,90.80
2019-05-20T10:08:05.964Z,90.90
2019-05-20T10:10:34.460Z,91.20
2019-05-20T10:13:02.938Z,91.30
2019-05-20T10:15:31.631Z,91.50
2019-05-20T10:18:00.074Z,91.50
2019-05-20T10:20:28.542Z,91.10
2019-05-20T10:22:56.983Z,90.70
2019-05-20T10:25:25.466Z,90.50
2019-05-20T10:27:57.319Z,90.90
2019-05-20T10:30:24.411Z,90.70
2019-05-20T10:32:52.872Z,90.90
2019-05-20T10:35:21.426Z,91.00
2019-05-20T10:37:49.928Z,91.20
2019-05-20T10:40:19.198Z,91.40
2019-05-20T10:42:47.653Z,91.20
2019-05-20T10:45:16.184Z,90.70
2019-05-20T10:47:44.729Z,90.70
2019-05-20T10:50:13.542Z,90.40
2019-05-20T10:52:41.994Z,90.30
2019-05-20T10:55:11.513Z,90.30
2019-05-20T10:57:40.026Z,90.00
2019-05-20T11:00:09.309Z,89.60
2019-05-20T11:02:37.856Z,90.20
2019-05-20T11:05:07.678Z,90.50
2019-05-20T11:07:36.192Z,90.40
2019-05-20T11:10:06.659Z,90.40
2019-05-20T11:12:35.204Z,90.30
2019-05-20T11:15:05.599Z,89.20
2019-05-20T11:17:34.191Z,88.60
2019-05-20T11:20:02.813Z,88.60
2019-05-20T11:22:31.301Z,90.00
2019-05-20T11:24:59.800Z,90.00
2019-05-20T11:27:28.659Z,89.70
2019-05-20T11:29:57.131Z,89.50
2019-05-20T11:32:25.598Z,89.50
2019-05-20T11:34:54.123Z,88.70
2019-05-20T11:37:22.619Z,88.20
2019-05-20T11:39:51.076Z,88.60
2019-05-20T11:42:19.536Z,88.60
2019-05-20T11:44:47.991Z,89.00
2019-05-20T11:47:16.671Z,88.90
2019-05-20T11:49:45.195Z,90.10
2019-05-20T11:52:13.738Z,89.50
2019-05-20T11:54:42.253Z,89.40
2019-05-20T11:57:10.842Z,87.30
2019-05-20T11:59:39.427Z,87.50
2019-05-20T12:02:07.887Z,86.10
2019-05-20T12:04:36.347Z,86.20
2019-05-20T12:07:04.952Z,86.10
2019-05-20T12:09:48.116Z,86.10
2019-05-20T12:12:05.538Z,85.30
2019-05-20T12:14:34.257Z,86.00
2019-05-20T12:17:03.057Z,85.20
2019-05-20T12:19:31.596Z,85.40
2019-05-20T12:22:00.185Z,86.00
2019-05-20T12:24:28.661Z,86.80
2019-05-20T12:26:57.127Z,87.30
2019-05-20T12:29:25.637Z,87.00
2019-05-20T12:31:54.089Z,87.10
2019-05-20T12:34:22.603Z,85.50
2019-05-20T12:36:51.080Z,84.70
2019-05-20T12:39:19.701Z,84.80
2019-05-20T12:41:48.264Z,86.10
2019-05-20T12:44:16.735Z,85.10
2019-05-20T12:46:45.220Z,82.90
2019-05-20T12:49:13.925Z,84.40
2019-05-20T12:51:42.503Z,84.80
2019-05-20T12:54:11.074Z,84.40
2019-05-20T12:56:39.651Z,84.90
2019-05-20T12:59:08.245Z,83.60
2019-05-20T13:01:36.768Z,81.30
2019-05-20T13:04:05.363Z,81.00
2019-05-20T13:06:33.975Z,82.80
2019-05-20T13:09:11.507Z,83.10
2019-05-20T13:11:39.981Z,84.30
2019-05-20T13:14:08.479Z,85.30
2019-05-20T13:16:37.057Z,83.90
2019-05-20T13:19:05.586Z,83.30
2019-05-20T13:21:34.095Z,83.20
2019-05-20T13:24:02.546Z,83.80
2019-05-20T13:26:31.034Z,84.70
2019-05-20T13:28:59.973Z,84.90
2019-05-20T13:31:28.808Z,82.50
2019-05-20T13:33:57.491Z,82.00
2019-05-20T13:36:25.967Z,82.40
2019-05-20T13:38:54.498Z,82.20
2019-05-20T13:41:22.990Z,82.70
2019-05-20T13:43:51.557Z,82.40
2019-05-20T13:46:20.085Z,81.00
2019-05-20T13:48:48.534Z,79.30
2019-05-20T13:51:17.056Z,80.50
2019-05-20T13:53:45.602Z,80.50
2019-05-20T13:56:14.175Z,79.70
2019-05-20T13:58:42.682Z,81.40
2019-05-20T14:01:11.151Z,81.40
2019-05-20T14:03:39.610Z,81.50
2019-05-20T14:06:08.166Z,79.80
2019-05-20T14:08:36.665Z,78.90
2019-05-20T14:11:05.339Z,78.60
2019-05-20T14:13:33.877Z,79.20
2019-05-20T14:16:02.342Z,78.40
2019-05-20T14:18:30.878Z,77.10
2019-05-20T14:20:59.354Z,76.60
2019-05-20T14:23:27.821Z,78.50
2019-05-20T14:25:56.286Z,77.90
2019-05-20T14:28:24.876Z,77.10
2019-05-20T14:30:53.328Z,76.50
2019-05-20T14:33:21.797Z,76.40
2019-05-20T14:35:50.263Z,76.10
2019-05-20T14:38:18.711Z,76.90
2019-05-20T14:40:47.220Z,77.20
2019-05-20T14:43:15.751Z,77.30
2019-05-20T14:45:44.244Z,77.30
2019-05-20T14:48:12.804Z,77.40
2019-05-20T14:50:41.341Z,77.30
2019-05-20T14:53:09.932Z,77.00
2019-05-20T14:55:42.662Z,76.40
2019-05-20T14:58:08.703Z,76.70
2019-05-20T15:00:37.255Z,76.20
2019-05-20T15:03:05.736Z,76.20
2019-05-20T15:05:34.366Z,76.40
2019-05-20T15:08:03.173Z,77.60
2019-05-20T15:10:31.683Z,78.60
2019-05-20T15:13:00.140Z,79.50
2019-05-20T15:15:28.621Z,79.80
2019-05-20T15:17:57.198Z,80.00
2019-05-20T15:20:25.678Z,80.50
2019-05-20T15:22:54.199Z,80.60
2019-05-20T15:25:22.734Z,81.40
2019-05-20T15:27:51.204Z,81.50
2019-05-20T15:30:20.653Z,81.60
2019-05-20T15:32:49.244Z,81.60
2019-05-20T15:35:17.708Z,83.10
2019-05-20T15:37:46.170Z,84.10
2019-05-20T15:40:14.881Z,82.70
2019-05-20T15:42:43.443Z,82.10
2019-05-20T15:45:12.466Z,81.70
2019-05-20T15:47:40.938Z,80.10
2019-05-20T15:50:10.608Z,80.10
2019-05-20T15:52:39.468Z,79.20
2019-05-20T15:55:08.364Z,78.90
2019-05-20T15:57:36.849Z,77.80
2019-05-20T16:00:07.751Z,79.70
2019-05-20T16:02:36.622Z,81.50
2019-05-20T16:05:07.019Z,81.50
2019-05-20T16:07:35.530Z,82.50
2019-05-20T16:10:04.943Z,82.20
2019-05-20T16:12:34.346Z,83.60
2019-05-20T16:15:03.851Z,84.30
2019-05-20T16:17:32.341Z,84.50
2019-05-20T16:20:00.907Z,84.50
2019-05-20T16:22:29.635Z,84.50
2019-05-20T16:24:58.174Z,83.30
2019-05-20T16:27:26.686Z,82.80
2019-05-20T16:30:06.021Z,82.30
2019-05-20T16:32:25.480Z,82.40
2019-05-20T16:34:53.957Z,83.00
2019-05-20T16:37:22.477Z,82.60
2019-05-20T16:39:50.943Z,82.50
2019-05-20T16:42:19.648Z,82.70
2019-05-20T16:44:48.190Z,83.50
2019-05-20T16:47:16.663Z,83.50
2019-05-20T16:49:45.217Z,83.80
2019-05-20T16:52:13.671Z,84.10
2019-05-20T16:54:42.162Z,84.30
2019-05-20T16:57:10.704Z,84.80
2019-05-20T16:59:39.245Z,85.60
2019-05-20T17:02:07.863Z,86.10
2019-05-20T17:04:36.352Z,86.70
2019-05-20T17:07:07.494Z,86.90
2019-05-20T17:09:35.938Z,87.00
2019-05-20T17:12:04.587Z,87.30
2019-05-20T17:14:33.047Z,87.20
2019-05-20T17:17:01.736Z,87.80
2019-05-20T17:19:30.210Z,88.30
2019-05-20T17:21:58.663Z,88.90
2019-05-20T17:24:27.205Z,89.10
2019-05-20T17:26:55.726Z,88.90
2019-05-20T17:29:24.241Z,89.30
2019-05-20T17:31:52.833Z,89.70
2019-05-20T17:34:21.294Z,89.70
2019-05-20T17:36:49.891Z,90.10
2019-05-20T17:39:18.472Z,90.10
2019-05-20T17:41:47.149Z,90.20
2019-05-20T17:44:15.733Z,90.10
2019-05-20T17:46:44.211Z,90.10
2019-05-20T17:49:12.675Z,90.20
2019-05-20T17:51:43.319Z,90.40
2019-05-20T17:54:13.043Z,90.30
2019-05-20T17:56:41.585Z,90.30
2019-05-20T17:59:10.082Z,90.50
2019-05-20T18:01:38.617Z,90.60
2019-05-20T18:04:07.093Z,90.60
2019-05-20T18:06:35.790Z,90.70
2019-05-20T18:09:07.196Z,90.70
2019-05-20T18:11:35.890Z,90.90
2019-05-20T18:14:05.316Z,90.90
2019-05-20T18:16:33.883Z,91.10
2019-05-20T18:19:02.411Z,91.30
2019-05-20T18:21:30.867Z,91.60
2019-05-20T18:23:59.437Z,91.50
2019-05-20T18:26:28.136Z,91.70
2019-05-20T18:28:56.695Z,91.70
2019-05-20T18:31:32.581Z,91.90
2019-05-20T18:33:55.364Z,91.80
2019-05-20T18:36:23.841Z,91.90
2019-05-20T18:38:52.296Z,92.10
2019-05-20T18:41:20.759Z,92.10
2019-05-20T18:43:49.950Z,92.10
2019-05-20T18:46:18.419Z,92.30
2019-05-20T18:48:46.953Z,92.30
2019-05-20T18:51:15.448Z,92.60
2019-05-20T18:53:44.131Z,92.50
2019-05-20T18:56:12.676Z,92.50
2019-05-20T18:58:41.211Z,92.90
2019-05-20T19:01:09.763Z,92.70
2019-05-20T19:03:41.209Z,92.80
2019-05-20T19:06:10.018Z,92.80
2019-05-20T19:08:38.553Z,92.80
2019-05-20T19:11:07.283Z,92.80
2019-05-20T19:13:35.795Z,92.70
2019-05-20T19:16:04.502Z,93.00
2019-05-20T19:18:32.958Z,92.70
2019-05-20T19:21:01.643Z,92.70
2019-05-20T19:23:30.174Z,92.80
2019-05-20T19:25:58.771Z,92.70
2019-05-20T19:28:27.441Z,92.70
2019-05-20T19:30:55.907Z,92.70
2019-05-20T19:33:24.650Z,92.60
2019-05-20T19:35:53.206Z,92.80
2019-05-20T19:38:22.035Z,92.80
2019-05-20T19:40:50.620Z,92.70
2019-05-20T19:43:19.173Z,92.90
2019-05-20T19:45:47.642Z,92.90
2019-05-20T19:48:16.134Z,92.90
2019-05-20T19:50:44.689Z,92.90
2019-05-20T19:53:13.526Z,93.10
2019-05-20T19:55:42.142Z,93.00
2019-05-20T19:58:13.494Z,93.00
2019-05-20T20:00:41.974Z,93.00
2019-05-20T20:03:10.497Z,92.90
2019-05-20T20:05:38.989Z,93.00
2019-05-20T20:08:07.578Z,93.00
2019-05-20T20:10:38.468Z,93.00
2019-05-20T20:13:07.044Z,93.10
2019-05-20T20:15:35.583Z,93.10
2019-05-20T20:18:04.141Z,93.00
2019-05-20T20:20:34.131Z,93.00
2019-05-20T20:23:02.616Z,93.00
2019-05-20T20:25:31.200Z,92.90
2019-05-20T20:27:59.817Z,93.00
2019-05-20T20:30:28.581Z,92.90
2019-05-20T20:32:57.094Z,93.00
2019-05-20T20:35:37.297Z,93.10
2019-05-20T20:37:55.819Z,93.20
2019-05-20T20:40:24.284Z,93.10
2019-05-20T20:42:52.731Z,93.30
2019-05-20T20:45:21.207Z,93.20
2019-05-20T20:47:49.731Z,93.40
2019-05-20T20:50:21.366Z,93.40
2019-05-20T20:52:49.848Z,93.40
2019-05-20T20:55:18.303Z,93.60
2019-05-20T20:57:46.757Z,93.60
2019-05-20T21:00:16.388Z,93.90
2019-05-20T21:02:52.777Z,93.90
2019-05-20T21:05:15.383Z,94.00
2019-05-20T21:07:43.927Z,94.20
2019-05-20T21:10:13.037Z,94.20
2019-05-20T21:12:41.640Z,94.40
2019-05-20T21:15:10.723Z,94.50
2019-05-20T21:17:39.314Z,94.90
2019-05-20T21:20:08.348Z,94.90
2019-05-20T21:22:36.820Z,95.00
2019-05-20T21:25:06.303Z,95.00
2019-05-20T21:27:34.807Z,95.00
2019-05-20T21:30:04.972Z,95.10
2019-05-20T21:32:33.506Z,95.20
2019-05-20T21:35:01.991Z,95.30
2019-05-20T21:37:30.554Z,95.40
2019-05-20T21:39:59.059Z,95.50
2019-05-20T21:42:27.538Z,95.50
2019-05-20T21:44:56.187Z,95.50
2019-05-20T21:47:24.675Z,95.40
2019-05-20T21:49:53.155Z,95.50
2019-05-20T21:52:21.681Z,95.30
2019-05-20T21:54:50.156Z,95.10
2019-05-20T21:57:18.679Z,95.20
2019-05-20T21:59:47.222Z,95.30
2019-05-20T22:02:15.774Z,95.10
2019-05-20T22:04:44.235Z,95.20
2019-05-20T22:07:12.699Z,95.10
2019-05-20T22:09:41.258Z,94.80
2019-05-20T22:12:09.847Z,94.70
2019-05-20T22:14:38.320Z,94.80
2019-05-20T22:17:06.790Z,94.70
2019-05-20T22:19:35.267Z,94.80
2019-05-20T22:22:20.764Z,94.80
2019-05-20T22:24:49.789Z,94.70
2019-05-20T22:27:18.291Z,94.40
2019-05-20T22:29:48.035Z,94.20
2019-05-20T22:32:16.604Z,94.20
2019-05-20T22:34:53.225Z,94.30
2019-05-20T22:37:15.298Z,94.50
2019-05-20T22:39:43.807Z,94.40
2019-05-20T22:42:12.327Z,94.30
2019-05-20T22:44:40.822Z,94.30
2019-05-20T22:47:09.268Z,94.30
2019-05-20T22:49:38.022Z,94.20
2019-05-20T22:52:06.602Z,94.10
2019-05-20T22:54:35.111Z,94.40
2019-05-20T22:57:03.573Z,94.70
2019-05-20T22:59:32.222Z,94.80
2019-05-20T23:02:00.763Z,94.90
2019-05-20T23:04:29.405Z,94.90
2019-05-20T23:06:57.922Z,95.10
2019-05-20T23:09:26.493Z,94.20
2019-05-20T23:11:55.032Z,94.30
2019-05-20T23:14:23.857Z,94.20
2019-05-20T23:16:52.327Z,93.90
2019-05-20T23:19:20.866Z,94.00
2019-05-20T23:21:49.323Z,94.20
2019-05-20T23:24:17.890Z,94.10
2019-05-20T23:26:46.434Z,94.00
2019-05-20T23:29:15.007Z,94.00
2019-05-20T23:31:43.628Z,94.00
2019-05-20T23:34:13.307Z,93.90
2019-05-20T23:36:42.031Z,94.00
2019-05-20T23:39:10.602Z,94.00
2019-05-20T23:41:39.304Z,94.00
2019-05-20T23:44:07.824Z,94.10
2019-05-20T23:46:36.297Z,94.00
2019-05-20T23:49:04.818Z,93.80
2019-05-20T23:51:33.295Z,93.80
2019-05-20T23:54:01.739Z,93.90
2019-05-20T23:56:30.204Z,94.10
2019-05-20T23:58:58.750Z,94.10
